sensor_id;sensor_type;location;lat;lon;timestamp;P1;durP1;ratioP1;P2;durP2;ratioP2
43626;SDS011;29217;52.586;13.442;2023-01-28T00:02:02;5.93;;;3.55;;
43626;SDS011;29217;52.586;13.442;2023-01-28T00:04:28;6.13;;;3.45;;
43626;SDS011;29217;52.586;13.442;2023-01-28T00:06:54;9.95;;;3.42;;
43626;SDS011;29217;52.586;13.442;2023-01-28T00:09:20;8.23;;;3.28;;
43626;SDS011;29217;52.586;13.442;2023-01-28T00:11:46;4.72;;;3.28;;
43626;SDS011;29217;52.586;13.442;2023-01-28T00:14:12;6.78;;;3.15;;
43626;SDS011;29217;52.586;13.442;2023-01-28T00:16:38;8.20;;;3.92;;
43626;SDS011;29217;52.586;13.442;2023-01-28T00:19:04;6.65;;;3.83;;
43626;SDS011;29217;52.586;13.442;2023-01-28T00:21:31;6.53;;;3.50;;
43626;SDS011;29217;52.586;13.442;2023-01-28T00:23:57;6.32;;;3.90;;
43626;SDS011;29217;52.586;13.442;2023-01-28T00:26:23;8.35;;;4.38;;
43626;SDS011;29217;52.586;13.442;2023-01-28T00:28:49;9.10;;;3.85;;
43626;SDS011;29217;52.586;13.442;2023-01-28T00:31:16;6.90;;;3.80;;
43626;SDS011;29217;52.586;13.442;2023-01-28T00:33:43;10.48;;;4.05;;
43626;SDS011;29217;52.586;13.442;2023-01-28T00:36:09;7.47;;;3.78;;
43626;SDS011;29217;52.586;13.442;2023-01-28T00:38:35;4.38;;;2.90;;
43626;SDS011;29217;52.586;13.442;2023-01-28T00:43:34;7.18;;;3.33;;
43626;SDS011;29217;52.586;13.442;2023-01-28T00:46:00;7.57;;;3.17;;
43626;SDS011;29217;52.586;13.442;2023-01-28T00:48:26;7.22;;;3.70;;
43626;SDS011;29217;52.586;13.442;2023-01-28T00:50:52;4.53;;;2.97;;
43626;SDS011;29217;52.586;13.442;2023-01-28T00:53:18;6.38;;;3.53;;
43626;SDS011;29217;52.586;13.442;2023-01-28T00:55:44;6.93;;;2.50;;
43626;SDS011;29217;52.586;13.442;2023-01-28T00:58:10;9.27;;;3.33;;
43626;SDS011;29217;52.586;13.442;2023-01-28T01:00:36;8.23;;;2.90;;
43626;SDS011;29217;52.586;13.442;2023-01-28T01:03:02;4.65;;;2.67;;
43626;SDS011;29217;52.586;13.442;2023-01-28T01:05:28;6.32;;;2.95;;
43626;SDS011;29217;52.586;13.442;2023-01-28T01:07:54;6.25;;;2.92;;
43626;SDS011;29217;52.586;13.442;2023-01-28T01:10:20;4.45;;;3.10;;
43626;SDS011;29217;52.586;13.442;2023-01-28T01:12:46;5.90;;;3.40;;
43626;SDS011;29217;52.586;13.442;2023-01-28T01:15:12;4.25;;;3.25;;
43626;SDS011;29217;52.586;13.442;2023-01-28T01:17:39;4.38;;;2.53;;
43626;SDS011;29217;52.586;13.442;2023-01-28T01:20:06;5.47;;;3.03;;
43626;SDS011;29217;52.586;13.442;2023-01-28T01:22:33;4.53;;;3.15;;
43626;SDS011;29217;52.586;13.442;2023-01-28T01:25:00;4.78;;;3.13;;
43626;SDS011;29217;52.586;13.442;2023-01-28T01:27:26;11.73;;;4.03;;
43626;SDS011;29217;52.586;13.442;2023-01-28T01:29:53;7.20;;;3.50;;
43626;SDS011;29217;52.586;13.442;2023-01-28T01:32:19;8.70;;;3.78;;
43626;SDS011;29217;52.586;13.442;2023-01-28T01:34:46;4.00;;;2.95;;
43626;SDS011;29217;52.586;13.442;2023-01-28T01:37:12;6.85;;;3.67;;
43626;SDS011;29217;52.586;13.442;2023-01-28T01:39:38;9.52;;;3.10;;
43626;SDS011;29217;52.586;13.442;2023-01-28T01:42:04;4.20;;;3.15;;
43626;SDS011;29217;52.586;13.442;2023-01-28T01:44:51;4.82;;;3.20;;
43626;SDS011;29217;52.586;13.442;2023-01-28T01:47:18;4.32;;;2.92;;
43626;SDS011;29217;52.586;13.442;2023-01-28T01:49:44;6.55;;;3.35;;
43626;SDS011;29217;52.586;13.442;2023-01-28T01:52:13;7.57;;;3.03;;
43626;SDS011;29217;52.586;13.442;2023-01-28T01:54:40;7.00;;;3.17;;
43626;SDS011;29217;52.586;13.442;2023-01-28T01:57:07;5.32;;;3.03;;
43626;SDS011;29217;52.586;13.442;2023-01-28T01:59:34;6.25;;;2.97;;
43626;SDS011;29217;52.586;13.442;2023-01-28T02:02:02;5.53;;;3.00;;
43626;SDS011;29217;52.586;13.442;2023-01-28T02:04:29;5.20;;;3.47;;
43626;SDS011;29217;52.586;13.442;2023-01-28T02:06:56;4.05;;;2.70;;
43626;SDS011;29217;52.586;13.442;2023-01-28T02:09:24;4.38;;;2.90;;
43626;SDS011;29217;52.586;13.442;2023-01-28T02:11:51;4.35;;;3.30;;
43626;SDS011;29217;52.586;13.442;2023-01-28T02:14:18;5.88;;;3.65;;
43626;SDS011;29217;52.586;13.442;2023-01-28T02:16:44;5.65;;;3.15;;
43626;SDS011;29217;52.586;13.442;2023-01-28T02:19:11;4.88;;;2.90;;
43626;SDS011;29217;52.586;13.442;2023-01-28T02:24:23;5.82;;;3.17;;
43626;SDS011;29217;52.586;13.442;2023-01-28T02:29:36;5.43;;;2.60;;
43626;SDS011;29217;52.586;13.442;2023-01-28T02:32:05;3.72;;;2.80;;
43626;SDS011;29217;52.586;13.442;2023-01-28T02:34:44;4.68;;;3.05;;
43626;SDS011;29217;52.586;13.442;2023-01-28T02:37:15;7.10;;;2.95;;
43626;SDS011;29217;52.586;13.442;2023-01-28T02:39:51;4.28;;;2.85;;
43626;SDS011;29217;52.586;13.442;2023-01-28T02:42:22;6.70;;;3.20;;
43626;SDS011;29217;52.586;13.442;2023-01-28T02:44:49;3.45;;;2.50;;
43626;SDS011;29217;52.586;13.442;2023-01-28T02:47:15;5.35;;;2.85;;
43626;SDS011;29217;52.586;13.442;2023-01-28T02:50:04;4.03;;;2.72;;
43626;SDS011;29217;52.586;13.442;2023-01-28T02:57:55;8.02;;;3.00;;
43626;SDS011;29217;52.586;13.442;2023-01-28T03:00:26;6.78;;;3.55;;
43626;SDS011;29217;52.586;13.442;2023-01-28T03:03:03;8.00;;;3.72;;
43626;SDS011;29217;52.586;13.442;2023-01-28T03:05:35;10.55;;;4.63;;
43626;SDS011;29217;52.586;13.442;2023-01-28T03:08:04;14.15;;;5.68;;
43626;SDS011;29217;52.586;13.442;2023-01-28T03:10:54;12.32;;;5.45;;
43626;SDS011;29217;52.586;13.442;2023-01-28T03:13:40;8.48;;;3.90;;
43626;SDS011;29217;52.586;13.442;2023-01-28T03:16:25;5.80;;;3.17;;
43626;SDS011;29217;52.586;13.442;2023-01-28T03:19:10;3.33;;;2.42;;
43626;SDS011;29217;52.586;13.442;2023-01-28T03:21:56;7.57;;;3.10;;
43626;SDS011;29217;52.586;13.442;2023-01-28T03:24:43;7.05;;;3.63;;
43626;SDS011;29217;52.586;13.442;2023-01-28T03:27:32;5.00;;;3.10;;
43626;SDS011;29217;52.586;13.442;2023-01-28T03:30:30;5.63;;;2.50;;
43626;SDS011;29217;52.586;13.442;2023-01-28T03:33:17;5.20;;;2.30;;
43626;SDS011;29217;52.586;13.442;2023-01-28T03:36:02;5.95;;;2.60;;
43626;SDS011;29217;52.586;13.442;2023-01-28T03:38:47;2.90;;;2.40;;
43626;SDS011;29217;52.586;13.442;2023-01-28T03:41:18;3.05;;;2.42;;
43626;SDS011;29217;52.586;13.442;2023-01-28T03:43:45;3.03;;;2.22;;
43626;SDS011;29217;52.586;13.442;2023-01-28T03:46:11;3.33;;;2.55;;
43626;SDS011;29217;52.586;13.442;2023-01-28T03:48:37;5.45;;;2.60;;
43626;SDS011;29217;52.586;13.442;2023-01-28T03:51:03;5.45;;;2.88;;
43626;SDS011;29217;52.586;13.442;2023-01-28T03:53:29;5.07;;;2.92;;
43626;SDS011;29217;52.586;13.442;2023-01-28T03:55:55;4.72;;;2.83;;
43626;SDS011;29217;52.586;13.442;2023-01-28T03:58:21;3.45;;;2.58;;
43626;SDS011;29217;52.586;13.442;2023-01-28T04:01:06;5.43;;;2.28;;
43626;SDS011;29217;52.586;13.442;2023-01-28T04:03:32;5.00;;;2.88;;
43626;SDS011;29217;52.586;13.442;2023-01-28T04:06:00;3.97;;;2.83;;
43626;SDS011;29217;52.586;13.442;2023-01-28T04:08:27;5.38;;;3.60;;
43626;SDS011;29217;52.586;13.442;2023-01-28T04:10:53;5.55;;;3.03;;
43626;SDS011;29217;52.586;13.442;2023-01-28T04:13:19;6.50;;;3.35;;
43626;SDS011;29217;52.586;13.442;2023-01-28T04:15:45;5.25;;;3.08;;
43626;SDS011;29217;52.586;13.442;2023-01-28T04:18:11;5.32;;;2.95;;
43626;SDS011;29217;52.586;13.442;2023-01-28T04:20:37;7.90;;;3.50;;
43626;SDS011;29217;52.586;13.442;2023-01-28T04:23:04;20.75;;;7.43;;
43626;SDS011;29217;52.586;13.442;2023-01-28T04:25:30;23.27;;;7.57;;
43626;SDS011;29217;52.586;13.442;2023-01-28T04:27:56;12.85;;;5.05;;
43626;SDS011;29217;52.586;13.442;2023-01-28T04:30:22;7.20;;;3.42;;
43626;SDS011;29217;52.586;13.442;2023-01-28T04:32:48;4.03;;;2.78;;
43626;SDS011;29217;52.586;13.442;2023-01-28T04:35:15;4.90;;;2.90;;
43626;SDS011;29217;52.586;13.442;2023-01-28T04:37:41;7.30;;;2.88;;
43626;SDS011;29217;52.586;13.442;2023-01-28T04:40:07;3.55;;;2.50;;
43626;SDS011;29217;52.586;13.442;2023-01-28T04:42:33;4.60;;;2.63;;
43626;SDS011;29217;52.586;13.442;2023-01-28T04:44:59;3.97;;;2.55;;
43626;SDS011;29217;52.586;13.442;2023-01-28T04:47:25;6.22;;;2.47;;
43626;SDS011;29217;52.586;13.442;2023-01-28T04:49:51;4.78;;;2.60;;
43626;SDS011;29217;52.586;13.442;2023-01-28T04:52:17;6.43;;;2.70;;
43626;SDS011;29217;52.586;13.442;2023-01-28T04:54:43;2.65;;;2.20;;
43626;SDS011;29217;52.586;13.442;2023-01-28T04:57:09;4.10;;;2.35;;
43626;SDS011;29217;52.586;13.442;2023-01-28T04:59:35;4.93;;;2.50;;
43626;SDS011;29217;52.586;13.442;2023-01-28T05:02:01;3.22;;;2.20;;
43626;SDS011;29217;52.586;13.442;2023-01-28T05:04:27;6.07;;;2.85;;
43626;SDS011;29217;52.586;13.442;2023-01-28T05:06:53;4.70;;;2.60;;
43626;SDS011;29217;52.586;13.442;2023-01-28T05:09:19;4.22;;;2.35;;
43626;SDS011;29217;52.586;13.442;2023-01-28T05:11:45;2.90;;;2.60;;
43626;SDS011;29217;52.586;13.442;2023-01-28T05:14:11;5.85;;;3.15;;
43626;SDS011;29217;52.586;13.442;2023-01-28T05:16:37;5.18;;;2.67;;
43626;SDS011;29217;52.586;13.442;2023-01-28T05:19:03;3.53;;;2.30;;
43626;SDS011;29217;52.586;13.442;2023-01-28T05:21:29;4.43;;;2.53;;
43626;SDS011;29217;52.586;13.442;2023-01-28T05:23:55;9.32;;;2.60;;
43626;SDS011;29217;52.586;13.442;2023-01-28T05:26:21;3.38;;;2.58;;
43626;SDS011;29217;52.586;13.442;2023-01-28T05:28:47;3.17;;;2.30;;
43626;SDS011;29217;52.586;13.442;2023-01-28T05:31:13;7.57;;;3.63;;
43626;SDS011;29217;52.586;13.442;2023-01-28T05:33:39;7.75;;;3.00;;
43626;SDS011;29217;52.586;13.442;2023-01-28T05:36:05;3.63;;;2.75;;
43626;SDS011;29217;52.586;13.442;2023-01-28T05:38:31;5.82;;;3.08;;
43626;SDS011;29217;52.586;13.442;2023-01-28T05:40:57;5.68;;;3.30;;
43626;SDS011;29217;52.586;13.442;2023-01-28T05:43:23;4.82;;;3.10;;
43626;SDS011;29217;52.586;13.442;2023-01-28T05:45:49;6.15;;;3.42;;
43626;SDS011;29217;52.586;13.442;2023-01-28T05:48:15;6.82;;;3.28;;
43626;SDS011;29217;52.586;13.442;2023-01-28T05:50:41;7.55;;;3.38;;
43626;SDS011;29217;52.586;13.442;2023-01-28T05:53:07;6.35;;;3.72;;
43626;SDS011;29217;52.586;13.442;2023-01-28T05:55:33;8.07;;;4.13;;
43626;SDS011;29217;52.586;13.442;2023-01-28T05:57:59;8.60;;;3.85;;
43626;SDS011;29217;52.586;13.442;2023-01-28T06:00:25;7.07;;;4.18;;
43626;SDS011;29217;52.586;13.442;2023-01-28T06:02:51;14.15;;;4.82;;
43626;SDS011;29217;52.586;13.442;2023-01-28T06:05:17;9.82;;;4.25;;
43626;SDS011;29217;52.586;13.442;2023-01-28T06:07:44;7.40;;;3.97;;
43626;SDS011;29217;52.586;13.442;2023-01-28T06:10:10;9.02;;;4.38;;
43626;SDS011;29217;52.586;13.442;2023-01-28T06:12:36;9.73;;;4.28;;
43626;SDS011;29217;52.586;13.442;2023-01-28T06:15:02;9.15;;;4.97;;
43626;SDS011;29217;52.586;13.442;2023-01-28T06:17:28;19.50;;;8.13;;
43626;SDS011;29217;52.586;13.442;2023-01-28T06:19:54;15.13;;;7.32;;
43626;SDS011;29217;52.586;13.442;2023-01-28T06:22:20;20.35;;;7.20;;
43626;SDS011;29217;52.586;13.442;2023-01-28T06:24:46;17.60;;;7.15;;
43626;SDS011;29217;52.586;13.442;2023-01-28T06:27:12;17.15;;;7.78;;
43626;SDS011;29217;52.586;13.442;2023-01-28T06:29:38;13.77;;;6.30;;
43626;SDS011;29217;52.586;13.442;2023-01-28T06:32:04;9.90;;;4.78;;
43626;SDS011;29217;52.586;13.442;2023-01-28T06:34:30;13.52;;;5.30;;
43626;SDS011;29217;52.586;13.442;2023-01-28T06:36:57;6.43;;;3.70;;
43626;SDS011;29217;52.586;13.442;2023-01-28T06:39:23;10.48;;;5.18;;
43626;SDS011;29217;52.586;13.442;2023-01-28T06:41:50;11.60;;;4.78;;
43626;SDS011;29217;52.586;13.442;2023-01-28T06:44:16;10.82;;;5.47;;
43626;SDS011;29217;52.586;13.442;2023-01-28T06:46:42;9.68;;;4.57;;
43626;SDS011;29217;52.586;13.442;2023-01-28T06:49:08;7.20;;;4.45;;
43626;SDS011;29217;52.586;13.442;2023-01-28T06:51:34;6.80;;;3.55;;
43626;SDS011;29217;52.586;13.442;2023-01-28T06:54:00;7.93;;;3.95;;
43626;SDS011;29217;52.586;13.442;2023-01-28T06:56:26;6.45;;;3.67;;
43626;SDS011;29217;52.586;13.442;2023-01-28T06:58:52;7.45;;;3.88;;
43626;SDS011;29217;52.586;13.442;2023-01-28T07:01:18;7.38;;;4.25;;
43626;SDS011;29217;52.586;13.442;2023-01-28T07:03:44;7.50;;;4.07;;
43626;SDS011;29217;52.586;13.442;2023-01-28T07:06:10;8.98;;;4.20;;
43626;SDS011;29217;52.586;13.442;2023-01-28T07:08:36;8.75;;;3.35;;
43626;SDS011;29217;52.586;13.442;2023-01-28T07:11:03;8.60;;;3.35;;
43626;SDS011;29217;52.586;13.442;2023-01-28T07:13:29;5.55;;;2.78;;
43626;SDS011;29217;52.586;13.442;2023-01-28T07:15:56;4.80;;;2.97;;
43626;SDS011;29217;52.586;13.442;2023-01-28T07:18:22;3.10;;;2.80;;
43626;SDS011;29217;52.586;13.442;2023-01-28T07:20:48;7.07;;;3.65;;
43626;SDS011;29217;52.586;13.442;2023-01-28T07:23:14;8.20;;;3.85;;
43626;SDS011;29217;52.586;13.442;2023-01-28T07:25:40;4.63;;;2.85;;
43626;SDS011;29217;52.586;13.442;2023-01-28T07:28:06;7.90;;;2.60;;
43626;SDS011;29217;52.586;13.442;2023-01-28T07:30:32;5.82;;;3.00;;
43626;SDS011;29217;52.586;13.442;2023-01-28T07:32:58;7.93;;;3.83;;
43626;SDS011;29217;52.586;13.442;2023-01-28T07:35:25;5.90;;;2.95;;
43626;SDS011;29217;52.586;13.442;2023-01-28T07:37:57;5.22;;;2.72;;
43626;SDS011;29217;52.586;13.442;2023-01-28T07:40:24;5.70;;;3.15;;
43626;SDS011;29217;52.586;13.442;2023-01-28T07:42:50;2.75;;;1.88;;
43626;SDS011;29217;52.586;13.442;2023-01-28T07:45:17;6.05;;;2.63;;
43626;SDS011;29217;52.586;13.442;2023-01-28T07:47:43;2.85;;;2.28;;
43626;SDS011;29217;52.586;13.442;2023-01-28T07:50:10;5.22;;;3.53;;
43626;SDS011;29217;52.586;13.442;2023-01-28T07:52:36;3.13;;;2.50;;
43626;SDS011;29217;52.586;13.442;2023-01-28T07:55:10;4.95;;;2.90;;
43626;SDS011;29217;52.586;13.442;2023-01-28T07:58:00;6.05;;;3.10;;
43626;SDS011;29217;52.586;13.442;2023-01-28T08:00:26;10.38;;;5.43;;
43626;SDS011;29217;52.586;13.442;2023-01-28T08:02:55;9.60;;;4.88;;
43626;SDS011;29217;52.586;13.442;2023-01-28T08:05:22;7.95;;;4.57;;
43626;SDS011;29217;52.586;13.442;2023-01-28T08:07:49;10.35;;;5.43;;
43626;SDS011;29217;52.586;13.442;2023-01-28T08:10:15;6.07;;;3.95;;
43626;SDS011;29217;52.586;13.442;2023-01-28T08:12:55;9.82;;;4.15;;
43626;SDS011;29217;52.586;13.442;2023-01-28T08:15:23;5.50;;;3.47;;
43626;SDS011;29217;52.586;13.442;2023-01-28T08:17:49;6.35;;;3.78;;
43626;SDS011;29217;52.586;13.442;2023-01-28T08:20:16;6.78;;;3.83;;
43626;SDS011;29217;52.586;13.442;2023-01-28T08:22:42;3.83;;;2.70;;
43626;SDS011;29217;52.586;13.442;2023-01-28T08:25:08;6.18;;;2.70;;
43626;SDS011;29217;52.586;13.442;2023-01-28T08:27:34;3.13;;;2.22;;
43626;SDS011;29217;52.586;13.442;2023-01-28T08:30:00;3.30;;;2.35;;
43626;SDS011;29217;52.586;13.442;2023-01-28T08:32:27;3.70;;;2.25;;
43626;SDS011;29217;52.586;13.442;2023-01-28T08:34:53;9.40;;;4.68;;
43626;SDS011;29217;52.586;13.442;2023-01-28T08:37:19;11.35;;;4.75;;
43626;SDS011;29217;52.586;13.442;2023-01-28T08:39:45;5.35;;;2.97;;
43626;SDS011;29217;52.586;13.442;2023-01-28T08:42:11;5.82;;;2.70;;
43626;SDS011;29217;52.586;13.442;2023-01-28T08:44:37;7.22;;;3.28;;
43626;SDS011;29217;52.586;13.442;2023-01-28T08:47:03;6.15;;;2.80;;
43626;SDS011;29217;52.586;13.442;2023-01-28T08:49:29;6.60;;;3.38;;
43626;SDS011;29217;52.586;13.442;2023-01-28T08:51:55;5.57;;;3.50;;
43626;SDS011;29217;52.586;13.442;2023-01-28T08:54:21;4.90;;;2.88;;
43626;SDS011;29217;52.586;13.442;2023-01-28T08:56:47;3.92;;;2.70;;
43626;SDS011;29217;52.586;13.442;2023-01-28T08:59:13;2.97;;;2.22;;
43626;SDS011;29217;52.586;13.442;2023-01-28T09:01:40;2.50;;;1.85;;
43626;SDS011;29217;52.586;13.442;2023-01-28T09:04:06;2.35;;;2.15;;
43626;SDS011;29217;52.586;13.442;2023-01-28T09:06:32;5.47;;;2.25;;
43626;SDS011;29217;52.586;13.442;2023-01-28T09:08:58;9.75;;;5.13;;
43626;SDS011;29217;52.586;13.442;2023-01-28T09:11:24;31.95;;;14.32;;
43626;SDS011;29217;52.586;13.442;2023-01-28T09:13:50;19.52;;;8.68;;
43626;SDS011;29217;52.586;13.442;2023-01-28T09:16:16;11.77;;;5.05;;
43626;SDS011;29217;52.586;13.442;2023-01-28T09:18:42;7.47;;;3.17;;
43626;SDS011;29217;52.586;13.442;2023-01-28T09:21:08;4.97;;;3.03;;
43626;SDS011;29217;52.586;13.442;2023-01-28T09:23:35;6.35;;;2.65;;
43626;SDS011;29217;52.586;13.442;2023-01-28T09:26:02;4.03;;;2.92;;
43626;SDS011;29217;52.586;13.442;2023-01-28T09:28:28;5.03;;;2.60;;
43626;SDS011;29217;52.586;13.442;2023-01-28T09:30:59;7.13;;;2.88;;
43626;SDS011;29217;52.586;13.442;2023-01-28T09:33:25;4.47;;;2.60;;
43626;SDS011;29217;52.586;13.442;2023-01-28T09:35:51;4.72;;;2.47;;
43626;SDS011;29217;52.586;13.442;2023-01-28T09:38:17;4.63;;;2.60;;
43626;SDS011;29217;52.586;13.442;2023-01-28T09:40:43;4.28;;;2.47;;
43626;SDS011;29217;52.586;13.442;2023-01-28T09:45:55;3.55;;;2.75;;
43626;SDS011;29217;52.586;13.442;2023-01-28T09:48:23;3.10;;;2.28;;
43626;SDS011;29217;52.586;13.442;2023-01-28T09:50:54;3.63;;;2.33;;
43626;SDS011;29217;52.586;13.442;2023-01-28T09:53:22;5.00;;;1.60;;
43626;SDS011;29217;52.586;13.442;2023-01-28T09:55:50;3.25;;;1.85;;
43626;SDS011;29217;52.586;13.442;2023-01-28T09:58:19;5.38;;;2.00;;
43626;SDS011;29217;52.586;13.442;2023-01-28T10:08:38;4.93;;;1.95;;
43626;SDS011;29217;52.586;13.442;2023-01-28T10:19:03;2.00;;;1.80;;
43626;SDS011;29217;52.586;13.442;2023-01-28T10:21:48;2.83;;;1.58;;
43626;SDS011;29217;52.586;13.442;2023-01-28T10:26:42;1.55;;;1.40;;
43626;SDS011;29217;52.586;13.442;2023-01-28T10:29:19;2.33;;;1.58;;
43626;SDS011;29217;52.586;13.442;2023-01-28T10:31:53;2.40;;;1.67;;
43626;SDS011;29217;52.586;13.442;2023-01-28T10:34:20;2.65;;;1.58;;
43626;SDS011;29217;52.586;13.442;2023-01-28T10:36:46;2.50;;;1.23;;
43626;SDS011;29217;52.586;13.442;2023-01-28T10:39:13;2.15;;;1.48;;
43626;SDS011;29217;52.586;13.442;2023-01-28T10:41:40;1.42;;;1.33;;
43626;SDS011;29217;52.586;13.442;2023-01-28T10:44:09;3.90;;;1.50;;
43626;SDS011;29217;52.586;13.442;2023-01-28T10:46:38;3.55;;;1.98;;
43626;SDS011;29217;52.586;13.442;2023-01-28T10:51:37;5.97;;;1.80;;
43626;SDS011;29217;52.586;13.442;2023-01-28T10:54:16;6.20;;;2.50;;
43626;SDS011;29217;52.586;13.442;2023-01-28T10:56:42;2.70;;;1.60;;
43626;SDS011;29217;52.586;13.442;2023-01-28T10:59:19;2.00;;;1.73;;
43626;SDS011;29217;52.586;13.442;2023-01-28T11:01:49;1.42;;;1.30;;
43626;SDS011;29217;52.586;13.442;2023-01-28T11:04:16;3.85;;;1.55;;
43626;SDS011;29217;52.586;13.442;2023-01-28T11:06:50;1.48;;;1.20;;
43626;SDS011;29217;52.586;13.442;2023-01-28T11:09:20;2.65;;;1.35;;
43626;SDS011;29217;52.586;13.442;2023-01-28T11:11:46;3.20;;;1.80;;
43626;SDS011;29217;52.586;13.442;2023-01-28T11:14:19;1.98;;;1.77;;
43626;SDS011;29217;52.586;13.442;2023-01-28T11:16:45;1.60;;;1.50;;
43626;SDS011;29217;52.586;13.442;2023-01-28T11:19:11;1.60;;;1.40;;
43626;SDS011;29217;52.586;13.442;2023-01-28T11:21:37;1.67;;;1.58;;
43626;SDS011;29217;52.586;13.442;2023-01-28T11:24:05;4.22;;;1.65;;
43626;SDS011;29217;52.586;13.442;2023-01-28T11:26:33;2.53;;;1.90;;
43626;SDS011;29217;52.586;13.442;2023-01-28T11:28:59;2.30;;;2.10;;
43626;SDS011;29217;52.586;13.442;2023-01-28T11:31:25;3.85;;;2.60;;
43626;SDS011;29217;52.586;13.442;2023-01-28T11:33:55;3.92;;;2.03;;
43626;SDS011;29217;52.586;13.442;2023-01-28T11:36:26;2.95;;;1.77;;
43626;SDS011;29217;52.586;13.442;2023-01-28T11:38:59;2.10;;;1.70;;
43626;SDS011;29217;52.586;13.442;2023-01-28T11:41:30;6.43;;;1.58;;
43626;SDS011;29217;52.586;13.442;2023-01-28T11:43:57;2.95;;;1.70;;
43626;SDS011;29217;52.586;13.442;2023-01-28T11:51:35;8.57;;;5.05;;
43626;SDS011;29217;52.586;13.442;2023-01-28T11:54:08;5.63;;;2.42;;
43626;SDS011;29217;52.586;13.442;2023-01-28T11:59:21;6.72;;;2.72;;
43626;SDS011;29217;52.586;13.442;2023-01-28T12:02:14;3.45;;;1.98;;
43626;SDS011;29217;52.586;13.442;2023-01-28T12:07:37;2.83;;;2.20;;
43626;SDS011;29217;52.586;13.442;2023-01-28T12:20:17;6.68;;;3.40;;
43626;SDS011;29217;52.586;13.442;2023-01-28T12:30:36;6.78;;;3.33;;
43626;SDS011;29217;52.586;13.442;2023-01-28T12:38:14;7.00;;;2.45;;
43626;SDS011;29217;52.586;13.442;2023-01-28T12:40:49;3.33;;;2.22;;
43626;SDS011;29217;52.586;13.442;2023-01-28T12:43:19;5.30;;;2.40;;
43626;SDS011;29217;52.586;13.442;2023-01-28T12:45:49;4.45;;;2.55;;
43626;SDS011;29217;52.586;13.442;2023-01-28T12:50:59;10.80;;;4.65;;
43626;SDS011;29217;52.586;13.442;2023-01-28T12:53:28;13.50;;;7.28;;
43626;SDS011;29217;52.586;13.442;2023-01-28T12:56:02;8.73;;;3.47;;
43626;SDS011;29217;52.586;13.442;2023-01-28T12:58:43;6.00;;;2.92;;
43626;SDS011;29217;52.586;13.442;2023-01-28T13:01:12;5.85;;;3.00;;
43626;SDS011;29217;52.586;13.442;2023-01-28T13:06:07;2.20;;;1.75;;
43626;SDS011;29217;52.586;13.442;2023-01-28T13:08:36;3.75;;;2.40;;
43626;SDS011;29217;52.586;13.442;2023-01-28T13:11:02;12.10;;;4.10;;
43626;SDS011;29217;52.586;13.442;2023-01-28T13:15:54;27.05;;;8.75;;
43626;SDS011;29217;52.586;13.442;2023-01-28T13:18:31;19.17;;;7.25;;
43626;SDS011;29217;52.586;13.442;2023-01-28T13:20:59;20.48;;;7.38;;
43626;SDS011;29217;52.586;13.442;2023-01-28T13:23:35;13.18;;;6.38;;
43626;SDS011;29217;52.586;13.442;2023-01-28T13:26:26;9.30;;;3.20;;
43626;SDS011;29217;52.586;13.442;2023-01-28T13:28:53;2.90;;;2.00;;
43626;SDS011;29217;52.586;13.442;2023-01-28T13:31:20;5.72;;;2.40;;
43626;SDS011;29217;52.586;13.442;2023-01-28T13:33:48;2.30;;;1.83;;
43626;SDS011;29217;52.586;13.442;2023-01-28T13:36:26;3.20;;;1.60;;
43626;SDS011;29217;52.586;13.442;2023-01-28T13:39:06;8.18;;;3.55;;
43626;SDS011;29217;52.586;13.442;2023-01-28T13:41:49;20.88;;;6.43;;
43626;SDS011;29217;52.586;13.442;2023-01-28T13:46:44;6.03;;;2.85;;
43626;SDS011;29217;52.586;13.442;2023-01-28T13:49:12;2.92;;;2.05;;
43626;SDS011;29217;52.586;13.442;2023-01-28T13:51:39;1.85;;;1.60;;
43626;SDS011;29217;52.586;13.442;2023-01-28T13:54:17;2.58;;;1.63;;
43626;SDS011;29217;52.586;13.442;2023-01-28T14:04:43;3.67;;;2.05;;
43626;SDS011;29217;52.586;13.442;2023-01-28T14:15:18;10.90;;;4.13;;
43626;SDS011;29217;52.586;13.442;2023-01-28T14:17:50;5.80;;;2.78;;
43626;SDS011;29217;52.586;13.442;2023-01-28T14:20:33;5.63;;;2.00;;
43626;SDS011;29217;52.586;13.442;2023-01-28T14:23:04;6.00;;;2.53;;
43626;SDS011;29217;52.586;13.442;2023-01-28T14:26:04;4.15;;;1.88;;
43626;SDS011;29217;52.586;13.442;2023-01-28T14:31:13;3.78;;;2.08;;
43626;SDS011;29217;52.586;13.442;2023-01-28T14:33:40;3.25;;;2.70;;
43626;SDS011;29217;52.586;13.442;2023-01-28T14:36:10;2.90;;;1.80;;
43626;SDS011;29217;52.586;13.442;2023-01-28T14:38:38;14.80;;;4.82;;
43626;SDS011;29217;52.586;13.442;2023-01-28T14:41:05;15.48;;;6.00;;
43626;SDS011;29217;52.586;13.442;2023-01-28T14:43:32;8.70;;;3.40;;
43626;SDS011;29217;52.586;13.442;2023-01-28T14:48:43;10.73;;;3.25;;
43626;SDS011;29217;52.586;13.442;2023-01-28T14:51:19;3.50;;;2.10;;
43626;SDS011;29217;52.586;13.442;2023-01-28T14:53:51;4.03;;;2.40;;
43626;SDS011;29217;52.586;13.442;2023-01-28T14:56:26;6.00;;;3.08;;
43626;SDS011;29217;52.586;13.442;2023-01-28T14:58:58;4.10;;;2.65;;
43626;SDS011;29217;52.586;13.442;2023-01-28T15:01:26;8.35;;;3.80;;
43626;SDS011;29217;52.586;13.442;2023-01-28T15:03:53;7.07;;;3.92;;
43626;SDS011;29217;52.586;13.442;2023-01-28T15:06:40;4.72;;;2.03;;
43626;SDS011;29217;52.586;13.442;2023-01-28T15:09:07;2.85;;;1.50;;
43626;SDS011;29217;52.586;13.442;2023-01-28T15:11:35;1.98;;;1.67;;
43626;SDS011;29217;52.586;13.442;2023-01-28T15:14:03;3.58;;;2.10;;
43626;SDS011;29217;52.586;13.442;2023-01-28T15:16:29;1.75;;;1.55;;
43626;SDS011;29217;52.586;13.442;2023-01-28T15:18:59;2.85;;;2.10;;
43626;SDS011;29217;52.586;13.442;2023-01-28T15:21:26;2.97;;;1.95;;
43626;SDS011;29217;52.586;13.442;2023-01-28T15:23:54;1.88;;;1.60;;
43626;SDS011;29217;52.586;13.442;2023-01-28T15:26:22;12.10;;;4.97;;
43626;SDS011;29217;52.586;13.442;2023-01-28T15:28:49;5.72;;;2.15;;
43626;SDS011;29217;52.586;13.442;2023-01-28T15:31:28;9.65;;;4.20;;
43626;SDS011;29217;52.586;13.442;2023-01-28T15:33:55;2.15;;;1.90;;
43626;SDS011;29217;52.586;13.442;2023-01-28T15:36:22;3.28;;;1.88;;
43626;SDS011;29217;52.586;13.442;2023-01-28T15:38:48;3.85;;;2.15;;
43626;SDS011;29217;52.586;13.442;2023-01-28T15:41:14;8.95;;;3.05;;
43626;SDS011;29217;52.586;13.442;2023-01-28T15:43:42;8.75;;;3.45;;
43626;SDS011;29217;52.586;13.442;2023-01-28T15:46:11;5.43;;;2.38;;
43626;SDS011;29217;52.586;13.442;2023-01-28T15:48:37;4.90;;;2.13;;
43626;SDS011;29217;52.586;13.442;2023-01-28T15:51:15;15.40;;;4.53;;
43626;SDS011;29217;52.586;13.442;2023-01-28T15:53:44;3.15;;;2.53;;
43626;SDS011;29217;52.586;13.442;2023-01-28T15:56:11;4.53;;;2.22;;
43626;SDS011;29217;52.586;13.442;2023-01-28T15:58:38;2.55;;;2.35;;
43626;SDS011;29217;52.586;13.442;2023-01-28T16:03:33;4.70;;;2.22;;
43626;SDS011;29217;52.586;13.442;2023-01-28T16:06:16;3.08;;;1.90;;
43626;SDS011;29217;52.586;13.442;2023-01-28T16:08:55;4.82;;;2.05;;
43626;SDS011;29217;52.586;13.442;2023-01-28T16:11:32;5.63;;;2.35;;
43626;SDS011;29217;52.586;13.442;2023-01-28T16:14:01;4.07;;;2.10;;
43626;SDS011;29217;52.586;13.442;2023-01-28T16:16:31;1.95;;;1.52;;
43626;SDS011;29217;52.586;13.442;2023-01-28T16:18:58;5.68;;;1.90;;
43626;SDS011;29217;52.586;13.442;2023-01-28T16:21:25;3.22;;;2.00;;
43626;SDS011;29217;52.586;13.442;2023-01-28T16:23:56;3.53;;;1.77;;
43626;SDS011;29217;52.586;13.442;2023-01-28T16:26:23;5.07;;;2.10;;
43626;SDS011;29217;52.586;13.442;2023-01-28T16:28:50;12.50;;;3.72;;